Time;durP1;ratioP1;P1;durP2;ratioP2;P2;SDS_P1;SDS_P2;PMS_P1;PMS_P2;Temp;Humidity;BMP_temperature;BMP_pressure;BME280_temperature;BME280_humidity;BME280_pressure;Samples;Min_cycle;Max_cycle;Signal;HPM_P1;HPM_P2
2020/12/10 00:00:24;;;;;;;;;;;18.70;40.20;;;;;;491520;240;1086;-54
2020/12/10 00:02:26;;;;;;;;;;;18.80;40.20;;;;;;491496;240;1239;-54
2020/12/10 00:04:27;;;;;;;;;;;18.80;40.20;;;;;;491548;240;1028;-54
2020/12/10 00:06:28;;;;;;;;;;;18.80;40.10;;;;;;491732;240;991;-54
2020/12/10 00:08:30;;;;;;;;;;;18.80;40.10;;;;;;491583;240;1073;-54
2020/12/10 00:10:31;;;;;;;;;;;18.80;40.10;;;;;;491627;240;1180;-54
2020/12/10 00:12:32;;;;;;;;;;;18.80;40.10;;;;;;491679;240;1998;-54
2020/12/10 00:14:33;;;;;;;;;;;18.90;40.10;;;;;;491627;240;1231;-54
2020/12/10 00:16:35;;;;;;;;;;;18.90;40.00;;;;;;491615;240;2236;-54
2020/12/10 00:18:36;;;;;;;;;;;18.90;40.00;;;;;;491706;240;1170;-54
2020/12/10 00:20:37;;;;;;;;;;;18.90;40.00;;;;;;491607;240;1088;-54
2020/12/10 00:22:38;;;;;;;;;;;18.90;39.90;;;;;;491560;240;1333;-54
2020/12/10 00:24:40;;;;;;;;;;;18.90;39.90;;;;;;491750;240;1151;-53
2020/12/10 00:26:41;;;;;;;;;;;18.90;39.90;;;;;;491633;240;1223;-54
2020/12/10 00:28:42;;;;;;;;;;;19.00;39.90;;;;;;491615;240;1259;-54
2020/12/10 00:30:44;;;;;;;;;;;19.00;39.90;;;;;;491626;240;1079;-54
2020/12/10 00:32:45;;;;;;;;;;;19.00;39.90;;;;;;491607;240;1148;-54
2020/12/10 00:34:46;;;;;;;;;;;19.00;39.80;;;;;;491658;240;1048;-54
2020/12/10 00:36:48;;;;;;;;;;;19.00;39.80;;;;;;491635;240;2188;-54
2020/12/10 00:38:49;;;;;;;;;;;19.00;39.80;;;;;;491639;240;1065;-54
2020/12/10 00:40:50;;;;;;;;;;;19.00;39.80;;;;;;491589;240;1204;-54
2020/12/10 00:42:52;;;;;;;;;;;19.10;39.80;;;;;;491565;240;1029;-54
2020/12/10 00:44:53;;;;;;;;;;;19.10;39.80;;;;;;491882;240;1068;-54
2020/12/10 00:46:54;;;;;;;;;;;19.10;39.70;;;;;;491592;240;1125;-54
2020/12/10 00:48:55;;;;;;;;;;;19.10;39.70;;;;;;491841;240;1073;-54
2020/12/10 00:50:57;;;;;;;;;;;19.10;39.70;;;;;;491624;240;1237;-54
2020/12/10 00:52:58;;;;;;;;;;;19.20;39.70;;;;;;491646;240;1107;-54
2020/12/10 00:54:59;;;;;;;;;;;19.20;39.70;;;;;;491681;240;979;-53
2020/12/10 00:57:01;;;;;;;;;;;19.20;39.70;;;;;;491694;240;2191;-54
2020/12/10 00:59:02;;;;;;;;;;;19.20;39.60;;;;;;491683;240;1144;-54
2020/12/10 01:01:03;;;;;;;;;;;19.20;39.60;;;;;;491566;240;975;-54
2020/12/10 01:03:04;;;;;;;;;;;19.20;39.60;;;;;;491568;240;1124;-53
2020/12/10 01:05:06;;;;;;;;;;;19.20;39.60;;;;;;491596;240;1033;-54
2020/12/10 01:07:07;;;;;;;;;;;19.20;39.60;;;;;;491723;240;1405;-54
2020/12/10 01:09:08;;;;;;;;;;;19.30;39.60;;;;;;491707;240;1185;-54
2020/12/10 01:11:10;;;;;;;;;;;19.30;39.60;;;;;;491717;240;1201;-53
2020/12/10 01:13:11;;;;;;;;;;;19.30;39.60;;;;;;491736;240;1215;-53
2020/12/10 01:15:12;;;;;;;;;;;19.30;39.50;;;;;;491623;240;1016;-54
2020/12/10 01:17:13;;;;;;;;;;;19.30;39.50;;;;;;491568;240;2199;-54
2020/12/10 01:19:15;;;;;;;;;;;19.30;39.50;;;;;;491837;240;1245;-54
2020/12/10 01:21:16;;;;;;;;;;;19.30;39.50;;;;;;491784;240;1342;-54
2020/12/10 01:23:17;;;;;;;;;;;19.30;39.50;;;;;;491608;240;1074;-54
2020/12/10 01:25:18;;;;;;;;;;;19.30;39.50;;;;;;491638;240;1082;-54
2020/12/10 01:27:20;;;;;;;;;;;19.30;39.50;;;;;;491767;240;1307;-54
2020/12/10 01:29:22;;;;;;;;;;;19.30;39.50;;;;;;491741;240;1075;-54
2020/12/10 01:31:22;;;;;;;;;;;19.40;39.50;;;;;;491559;240;1085;-54
2020/12/10 01:33:24;;;;;;;;;;;19.40;39.50;;;;;;491868;242;1119;-54
2020/12/10 01:35:25;;;;;;;;;;;19.40;39.50;;;;;;491617;240;1057;-54
2020/12/10 01:37:26;;;;;;;;;;;19.40;39.40;;;;;;491682;241;2192;-54
2020/12/10 01:39:28;;;;;;;;;;;19.40;39.40;;;;;;491626;240;1058;-54
2020/12/10 01:41:29;;;;;;;;;;;19.40;39.40;;;;;;491595;240;1215;-54
2020/12/10 01:43:30;;;;;;;;;;;19.40;39.40;;;;;;491613;240;1167;-53
2020/12/10 01:45:32;;;;;;;;;;;19.40;39.40;;;;;;491592;240;1104;-54
2020/12/10 01:47:33;;;;;;;;;;;19.40;39.40;;;;;;491601;240;1044;-54
2020/12/10 01:49:34;;;;;;;;;;;19.40;39.30;;;;;;491647;240;1213;-54
2020/12/10 01:51:36;;;;;;;;;;;19.40;39.30;;;;;;491612;240;970;-54
2020/12/10 01:53:37;;;;;;;;;;;19.40;39.30;;;;;;491632;240;1049;-54
2020/12/10 01:55:38;;;;;;;;;;;19.50;39.30;;;;;;491642;240;1268;-54
2020/12/10 01:57:40;;;;;;;;;;;19.50;39.40;;;;;;491733;240;2200;-54
2020/12/10 01:59:41;;;;;;;;;;;19.50;39.30;;;;;;491710;240;1116;-54
2020/12/10 02:01:42;;;;;;;;;;;19.50;39.30;;;;;;491733;240;978;-54
2020/12/10 02:03:43;;;;;;;;;;;19.50;39.30;;;;;;491583;240;1064;-53
2020/12/10 02:05:45;;;;;;;;;;;19.50;39.30;;;;;;491601;240;1285;-54
2020/12/10 02:07:46;;;;;;;;;;;19.50;39.30;;;;;;491613;240;1058;-53
2020/12/10 02:09:47;;;;;;;;;;;19.50;39.30;;;;;;491609;240;1227;-54
2020/12/10 02:11:49;;;;;;;;;;;19.50;39.30;;;;;;491724;240;1196;-54
2020/12/10 02:13:50;;;;;;;;;;;19.50;39.20;;;;;;491621;240;1001;-54
2020/12/10 02:15:51;;;;;;;;;;;19.60;39.30;;;;;;491647;240;1067;-54
2020/12/10 02:17:54;;;;;;;;;;;19.60;39.30;;;;;;491929;240;2191;-54
2020/12/10 02:19:54;;;;;;;;;;;19.60;39.30;;;;;;491569;240;1291;-54
2020/12/10 02:21:56;;;;;;;;;;;19.60;39.20;;;;;;491640;240;1106;-54
2020/12/10 02:23:57;;;;;;;;;;;19.60;39.20;;;;;;491575;240;1010;-54
2020/12/10 02:25:59;;;;;;;;;;;19.60;39.20;;;;;;491710;240;1118;-54
2020/12/10 02:28:00;;;;;;;;;;;19.60;39.20;;;;;;491548;240;1996;-54
2020/12/10 02:30:01;;;;;;;;;;;19.60;39.20;;;;;;491619;240;989;-54
2020/12/10 02:32:02;;;;;;;;;;;19.60;39.20;;;;;;491641;240;1194;-54
2020/12/10 02:34:04;;;;;;;;;;;19.60;39.20;;;;;;491558;240;1061;-53
2020/12/10 02:36:05;;;;;;;;;;;19.60;39.10;;;;;;491533;240;1030;-54
2020/12/10 02:38:06;;;;;;;;;;;19.60;39.10;;;;;;491717;240;2175;-54
2020/12/10 02:40:08;;;;;;;;;;;19.60;39.10;;;;;;491889;240;1054;-54
2020/12/10 02:42:09;;;;;;;;;;;19.60;39.10;;;;;;491750;240;1332;-53
2020/12/10 02:44:10;;;;;;;;;;;19.70;39.20;;;;;;491568;240;1176;-54
2020/12/10 02:46:11;;;;;;;;;;;19.70;39.10;;;;;;491569;240;1065;-54
2020/12/10 02:48:13;;;;;;;;;;;19.70;39.10;;;;;;491615;240;1069;-54
2020/12/10 02:50:14;;;;;;;;;;;19.70;39.10;;;;;;491621;240;1227;-54
2020/12/10 02:52:15;;;;;;;;;;;19.70;39.10;;;;;;491619;240;1025;-53
2020/12/10 02:54:16;;;;;;;;;;;19.70;39.10;;;;;;491598;240;1334;-54
2020/12/10 02:56:18;;;;;;;;;;;19.70;39.10;;;;;;491950;240;1107;-54
2020/12/10 02:58:19;;;;;;;;;;;19.70;39.10;;;;;;491620;240;2188;-54
2020/12/10 03:00:20;;;;;;;;;;;19.70;37.70;;;;;;491655;240;1123;-53
2020/12/10 03:02:22;;;;;;;;;;;19.80;39.10;;;;;;491864;240;1205;-54
2020/12/10 03:04:23;;;;;;;;;;;19.70;39.00;;;;;;491776;240;1314;-54
2020/12/10 03:06:24;;;;;;;;;;;19.80;39.10;;;;;;491542;240;1064;-54
2020/12/10 03:08:25;;;;;;;;;;;19.80;39.10;;;;;;491995;240;1060;-54
2020/12/10 03:10:27;;;;;;;;;;;19.80;39.00;;;;;;491542;240;1370;-54
2020/12/10 03:12:28;;;;;;;;;;;19.80;39.00;;;;;;491483;240;1166;-54
2020/12/10 03:14:29;;;;;;;;;;;19.80;39.00;;;;;;491936;240;1058;-54
2020/12/10 03:16:31;;;;;;;;;;;19.80;39.00;;;;;;491770;240;2175;-54
2020/12/10 03:18:32;;;;;;;;;;;19.80;39.00;;;;;;491715;240;993;-54
2020/12/10 03:20:33;;;;;;;;;;;19.80;39.00;;;;;;491622;240;1140;-54
2020/12/10 03:22:34;;;;;;;;;;;19.80;39.00;;;;;;491827;240;1042;-54
2020/12/10 03:24:36;;;;;;;;;;;19.80;39.00;;;;;;491865;240;1136;-54
2020/12/10 03:26:37;;;;;;;;;;;19.80;39.00;;;;;;491653;240;1073;-54
2020/12/10 03:28:38;;;;;;;;;;;19.80;38.90;;;;;;491622;240;1286;-54
2020/12/10 03:30:39;;;;;;;;;;;19.80;38.90;;;;;;491606;240;1029;-54
2020/12/10 03:32:41;;;;;;;;;;;19.80;38.90;;;;;;491624;240;1056;-53
2020/12/10 03:34:42;;;;;;;;;;;19.80;38.90;;;;;;491592;240;1055;-53
2020/12/10 03:36:44;;;;;;;;;;;19.80;38.90;;;;;;491592;240;2191;-53
2020/12/10 03:38:45;;;;;;;;;;;19.80;38.90;;;;;;491646;240;1002;-54
2020/12/10 03:40:46;;;;;;;;;;;19.80;38.90;;;;;;491577;240;1289;-54
2020/12/10 03:42:47;;;;;;;;;;;19.80;38.90;;;;;;491592;240;1396;-54
2020/12/10 03:44:49;;;;;;;;;;;19.80;38.90;;;;;;491922;240;1021;-53
2020/12/10 03:46:50;;;;;;;;;;;19.90;38.90;;;;;;491618;240;1033;-54
2020/12/10 03:48:51;;;;;;;;;;;19.90;38.90;;;;;;491642;240;1058;-54
2020/12/10 03:50:53;;;;;;;;;;;19.90;38.90;;;;;;491566;240;1047;-54
2020/12/10 03:52:54;;;;;;;;;;;19.90;38.90;;;;;;491627;240;1062;-54
2020/12/10 03:54:55;;;;;;;;;;;19.90;38.90;;;;;;491607;240;1074;-54
2020/12/10 03:56:59;;;;;;;;;;;19.90;38.90;;;;;;491592;240;2187;-54
2020/12/10 03:59:00;;;;;;;;;;;19.90;38.90;;;;;;491558;240;1200;-54
2020/12/10 04:01:01;;;;;;;;;;;19.90;38.90;;;;;;491583;240;1141;-54
2020/12/10 04:03:03;;;;;;;;;;;19.90;38.90;;;;;;491644;240;962;-54
2020/12/10 04:05:04;;;;;;;;;;;19.90;38.80;;;;;;491636;240;1151;-53
2020/12/10 04:07:05;;;;;;;;;;;19.90;38.90;;;;;;491575;240;1238;-54
2020/12/10 04:09:07;;;;;;;;;;;19.90;38.80;;;;;;491887;240;1077;-54
2020/12/10 04:11:08;;;;;;;;;;;19.90;38.80;;;;;;491055;242;1202;-54
2020/12/10 04:13:09;;;;;;;;;;;19.90;38.80;;;;;;491592;240;1184;-54
2020/12/10 04:15:11;;;;;;;;;;;19.90;38.80;;;;;;491581;240;1071;-53
2020/12/10 04:17:13;;;;;;;;;;;19.90;38.80;;;;;;491834;240;2196;-54
2020/12/10 04:19:14;;;;;;;;;;;19.90;38.80;;;;;;491681;240;1369;-54
2020/12/10 04:21:15;;;;;;;;;;;20.00;38.90;;;;;;491471;240;1337;-54
2020/12/10 04:23:16;;;;;;;;;;;19.90;38.70;;;;;;491589;240;975;-54
2020/12/10 04:25:18;;;;;;;;;;;20.00;38.80;;;;;;491668;240;1163;-54
2020/12/10 04:27:19;;;;;;;;;;;19.90;38.80;;;;;;491553;240;1354;-54
2020/12/10 04:29:20;;;;;;;;;;;20.00;38.80;;;;;;491720;240;1227;-54
2020/12/10 04:31:21;;;;;;;;;;;20.00;38.80;;;;;;491578;240;1084;-53
2020/12/10 04:33:23;;;;;;;;;;;20.00;38.80;;;;;;491634;240;1051;-54
2020/12/10 04:35:24;;;;;;;;;;;20.00;38.80;;;;;;491581;240;1253;-54
2020/12/10 04:37:25;;;;;;;;;;;20.00;38.80;;;;;;491575;240;2195;-54
2020/12/10 04:39:27;;;;;;;;;;;20.00;38.80;;;;;;491589;240;1111;-54
2020/12/10 04:41:30;;;;;;;;;;;20.00;38.70;;;;;;491750;240;1093;-54
2020/12/10 04:43:30;;;;;;;;;;;20.00;38.80;;;;;;491542;242;2155;-54
2020/12/10 04:45:31;;;;;;;;;;;20.00;38.80;;;;;;491598;240;972;-54
2020/12/10 04:47:32;;;;;;;;;;;20.00;39.30;;;;;;491749;240;1225;-54
2020/12/10 04:49:33;;;;;;;;;;;20.10;38.90;;;;;;491592;240;1130;-54
2020/12/10 04:51:35;;;;;;;;;;;20.10;38.70;;;;;;491239;240;1402;-53
2020/12/10 04:53:36;;;;;;;;;;;20.10;38.60;;;;;;491568;240;1230;-53
2020/12/10 04:55:37;;;;;;;;;;;20.10;38.60;;;;;;491584;240;1400;-53
2020/12/10 04:57:38;;;;;;;;;;;20.10;38.70;;;;;;491728;240;2184;-54
2020/12/10 04:59:40;;;;;;;;;;;20.10;38.80;;;;;;491732;240;1180;-53
2020/12/10 05:01:43;;;;;;;;;;;20.00;38.80;;;;;;491668;240;1060;-54
2020/12/10 05:03:44;;;;;;;;;;;19.90;38.90;;;;;;491722;240;1205;-54
2020/12/10 05:05:45;;;;;;;;;;;19.90;38.90;;;;;;491578;240;1097;-54
2020/12/10 05:07:47;;;;;;;;;;;19.90;39.10;;;;;;491552;240;1141;-53
2020/12/10 05:09:48;;;;;;;;;;;19.80;39.10;;;;;;491613;240;1084;-54
2020/12/10 05:11:49;;;;;;;;;;;19.80;39.10;;;;;;491681;240;1140;-54
2020/12/10 05:13:50;;;;;;;;;;;19.80;39.20;;;;;;491586;240;1303;-53
2020/12/10 05:15:52;;;;;;;;;;;19.70;39.30;;;;;;491610;240;1026;-53
2020/12/10 05:17:53;;;;;;;;;;;19.70;39.40;;;;;;491605;240;2200;-54
2020/12/10 05:19:54;;;;;;;;;;;19.60;39.40;;;;;;491683;240;1044;-53
2020/12/10 05:21:56;;;;;;;;;;;19.60;39.40;;;;;;491651;240;1304;-53
2020/12/10 05:23:57;;;;;;;;;;;19.60;39.50;;;;;;491573;240;1068;-54
2020/12/10 05:26:02;;;;;;;;;;;19.60;39.50;;;;;;491544;240;1042;-54
2020/12/10 05:27:59;;;;;;;;;;;19.50;39.60;;;;;;491566;241;1820;-54
2020/12/10 05:30:01;;;;;;;;;;;19.50;39.60;;;;;;491496;240;1235;-54
2020/12/10 05:32:02;;;;;;;;;;;19.50;39.60;;;;;;491429;240;1356;-54
2020/12/10 05:34:03;;;;;;;;;;;19.40;39.70;;;;;;491348;240;1061;-53
2020/12/10 05:36:04;;;;;;;;;;;19.40;39.70;;;;;;491473;240;1040;-54
2020/12/10 05:38:06;;;;;;;;;;;19.40;39.80;;;;;;491383;240;2184;-54
2020/12/10 05:40:07;;;;;;;;;;;19.40;39.80;;;;;;491535;240;1053;-54
2020/12/10 05:42:08;;;;;;;;;;;19.40;39.90;;;;;;491701;240;1269;-54
2020/12/10 05:44:10;;;;;;;;;;;19.30;39.90;;;;;;491502;240;1205;-53
2020/12/10 05:46:11;;;;;;;;;;;19.30;39.90;;;;;;491688;240;1087;-53
2020/12/10 05:48:12;;;;;;;;;;;19.30;39.90;;;;;;491585;240;1277;-53
2020/12/10 05:50:13;;;;;;;;;;;19.30;40.00;;;;;;491459;240;1098;-54
2020/12/10 05:52:15;;;;;;;;;;;19.30;40.00;;;;;;491352;240;1339;-53
2020/12/10 05:54:16;;;;;;;;;;;19.20;40.00;;;;;;491431;240;1088;-53
2020/12/10 05:56:17;;;;;;;;;;;19.20;40.00;;;;;;491393;240;1063;-54
2020/12/10 05:58:18;;;;;;;;;;;19.20;40.10;;;;;;491373;240;2191;-54
2020/12/10 06:00:20;;;;;;;;;;;19.20;40.10;;;;;;491442;240;1223;-53
2020/12/10 06:02:21;;;;;;;;;;;19.20;40.10;;;;;;491257;240;1028;-53
2020/12/10 06:04:22;;;;;;;;;;;19.10;40.10;;;;;;491363;240;1123;-53
2020/12/10 06:06:24;;;;;;;;;;;19.10;40.20;;;;;;491278;240;1126;-53
2020/12/10 06:08:25;;;;;;;;;;;19.10;40.20;;;;;;491302;240;1187;-53
2020/12/10 06:10:26;;;;;;;;;;;19.10;40.30;;;;;;491467;240;1116;-54
2020/12/10 06:12:27;;;;;;;;;;;19.10;40.30;;;;;;491384;240;1280;-54
2020/12/10 06:14:29;;;;;;;;;;;19.00;40.20;;;;;;491367;240;1178;-54
2020/12/10 06:16:30;;;;;;;;;;;19.00;40.30;;;;;;491292;240;1279;-54
2020/12/10 06:18:31;;;;;;;;;;;19.00;40.30;;;;;;491310;240;2185;-53
2020/12/10 06:20:33;;;;;;;;;;;19.00;40.30;;;;;;491424;240;1032;-54
2020/12/10 06:22:34;;;;;;;;;;;19.00;40.30;;;;;;491397;240;1310;-54
2020/12/10 06:24:36;;;;;;;;;;;19.00;40.40;;;;;;491420;240;1094;-54
2020/12/10 06:26:37;;;;;;;;;;;19.00;40.40;;;;;;491417;240;1343;-54
2020/12/10 06:28:38;;;;;;;;;;;19.00;40.40;;;;;;491442;240;1251;-54
2020/12/10 06:30:39;;;;;;;;;;;19.00;40.40;;;;;;491558;240;1159;-53
2020/12/10 06:32:40;;;;;;;;;;;18.90;40.40;;;;;;491284;240;1237;-54
2020/12/10 06:34:42;;;;;;;;;;;18.90;40.40;;;;;;491286;240;1231;-53
2020/12/10 06:36:43;;;;;;;;;;;18.90;40.40;;;;;;491238;240;1302;-54
2020/12/10 06:38:44;;;;;;;;;;;18.90;40.50;;;;;;491296;240;2199;-53
2020/12/10 06:40:45;;;;;;;;;;;18.90;40.50;;;;;;491301;240;1190;-54
2020/12/10 06:42:47;;;;;;;;;;;18.90;40.50;;;;;;491199;240;1212;-54
2020/12/10 06:44:48;;;;;;;;;;;18.90;40.50;;;;;;491197;240;1154;-54
2020/12/10 06:46:49;;;;;;;;;;;18.80;40.50;;;;;;491156;240;1195;-53
2020/12/10 06:48:51;;;;;;;;;;;18.80;40.50;;;;;;491292;240;1068;-53
2020/12/10 06:50:52;;;;;;;;;;;18.80;40.50;;;;;;491186;240;1101;-53
2020/12/10 06:52:54;;;;;;;;;;;18.80;40.50;;;;;;491136;240;1091;-53
2020/12/10 06:54:55;;;;;;;;;;;18.80;40.50;;;;;;491140;240;1108;-53
2020/12/10 06:56:57;;;;;;;;;;;18.80;40.50;;;;;;491232;240;1045;-54
2020/12/10 06:59:00;;;;;;;;;;;18.80;40.50;;;;;;491152;240;2188;-53
2020/12/10 07:00:59;;;;;;;;;;;18.80;40.60;;;;;;491134;241;2940;-54
2020/12/10 07:03:01;;;;;;;;;;;18.80;40.50;;;;;;491129;240;1084;-53
2020/12/10 07:05:02;;;;;;;;;;;18.80;40.60;;;;;;491206;240;1042;-54
2020/12/10 07:07:03;;;;;;;;;;;18.80;40.60;;;;;;491038;240;1125;-54
2020/12/10 07:09:05;;;;;;;;;;;18.80;40.60;;;;;;491084;240;1305;-54
2020/12/10 07:11:06;;;;;;;;;;;18.80;40.60;;;;;;491128;240;1189;-53
2020/12/10 07:13:08;;;;;;;;;;;18.80;40.60;;;;;;491095;240;1125;-54
2020/12/10 07:15:09;;;;;;;;;;;18.70;40.60;;;;;;491108;240;1321;-54
2020/12/10 07:17:10;;;;;;;;;;;18.70;40.60;;;;;;491135;240;1162;-53
2020/12/10 07:19:12;;;;;;;;;;;18.70;40.60;;;;;;491053;240;2180;-53
2020/12/10 07:21:13;;;;;;;;;;;18.70;40.60;;;;;;490721;240;1175;-54
2020/12/10 07:23:14;;;;;;;;;;;18.70;39.40;;;;;;490762;240;1132;-54
2020/12/10 07:25:16;;;;;;;;;;;18.70;40.70;;;;;;490995;240;1331;-54
2020/12/10 07:27:17;;;;;;;;;;;18.70;40.60;;;;;;490970;240;1166;-54
2020/12/10 07:29:18;;;;;;;;;;;18.70;40.70;;;;;;490991;240;1209;-53
2020/12/10 07:31:19;;;;;;;;;;;18.70;40.70;;;;;;491077;240;1192;-53
2020/12/10 07:33:22;;;;;;;;;;;18.70;39.40;;;;;;491045;240;1527;-53
2020/12/10 07:35:23;;;;;;;;;;;18.70;40.70;;;;;;491022;240;1240;-53
2020/12/10 07:37:24;;;;;;;;;;;18.70;40.70;;;;;;490980;240;1292;-54
2020/12/10 07:39:26;;;;;;;;;;;18.60;40.60;;;;;;490948;240;2171;-53
2020/12/10 07:41:27;;;;;;;;;;;18.60;40.60;;;;;;490966;240;1053;-54
2020/12/10 07:43:28;;;;;;;;;;;18.60;40.60;;;;;;490959;240;1182;-54
2020/12/10 07:45:29;;;;;;;;;;;18.60;39.30;;;;;;490846;240;1298;-54
2020/12/10 07:47:31;;;;;;;;;;;18.60;40.70;;;;;;490734;240;1200;-53
2020/12/10 07:49:32;;;;;;;;;;;18.60;40.70;;;;;;490783;240;1074;-54
2020/12/10 07:51:34;;;;;;;;;;;18.60;40.70;;;;;;490834;240;1245;-53
2020/12/10 07:53:35;;;;;;;;;;;18.60;40.70;;;;;;490972;240;1188;-54
2020/12/10 07:55:36;;;;;;;;;;;18.60;40.70;;;;;;490993;240;1046;-53
2020/12/10 07:57:37;;;;;;;;;;;18.60;40.70;;;;;;490880;240;1215;-54
2020/12/10 07:59:38;;;;;;;;;;;18.60;40.70;;;;;;490955;240;2199;-53
2020/12/10 08:01:40;;;;;;;;;;;18.60;40.70;;;;;;490919;240;1275;-53
2020/12/10 08:03:41;;;;;;;;;;;18.60;40.70;;;;;;490865;240;1117;-53
2020/12/10 08:05:43;;;;;;;;;;;18.50;40.70;;;;;;490845;240;1114;-53
2020/12/10 08:07:44;;;;;;;;;;;18.60;40.70;;;;;;490667;240;1169;-54
2020/12/10 08:09:49;;;;;;;;;;;18.50;40.70;;;;;;490731;240;1134;-54
2020/12/10 08:11:46;;;;;;;;;;;18.50;40.70;;;;;;490871;241;2191;-54
2020/12/10 08:13:48;;;;;;;;;;;18.50;40.70;;;;;;490887;240;1059;-54
2020/12/10 08:15:49;;;;;;;;;;;18.50;40.70;;;;;;490878;240;1057;-54
2020/12/10 08:17:50;;;;;;;;;;;18.50;40.70;;;;;;490768;240;1211;-53
2020/12/10 08:19:51;;;;;;;;;;;18.50;40.70;;;;;;490792;240;2193;-53
2020/12/10 08:21:53;;;;;;;;;;;18.50;40.70;;;;;;490982;240;1203;-54
2020/12/10 08:23:54;;;;;;;;;;;18.50;40.70;;;;;;490917;240;1068;-54
2020/12/10 08:25:55;;;;;;;;;;;18.50;40.70;;;;;;490972;240;1051;-53
2020/12/10 08:27:57;;;;;;;;;;;18.50;40.70;;;;;;490988;240;1161;-54
2020/12/10 08:29:58;;;;;;;;;;;18.50;40.70;;;;;;491017;240;1081;-54
2020/12/10 08:32:00;;;;;;;;;;;18.50;39.40;;;;;;490797;240;1291;-53
2020/12/10 08:34:01;;;;;;;;;;;18.50;39.40;;;;;;490788;241;1126;-54
2020/12/10 08:36:02;;;;;;;;;;;18.50;40.70;;;;;;490818;240;1080;-54
2020/12/10 08:38:03;;;;;;;;;;;18.50;40.80;;;;;;490748;240;1319;-53
2020/12/10 08:40:05;;;;;;;;;;;18.50;40.70;;;;;;490922;240;2192;-53
2020/12/10 08:42:06;;;;;;;;;;;18.50;40.70;;;;;;490879;240;1280;-53
2020/12/10 08:44:07;;;;;;;;;;;18.50;40.80;;;;;;490915;240;1201;-53
2020/12/10 08:46:09;;;;;;;;;;;18.50;40.80;;;;;;490999;240;1087;-54
2020/12/10 08:48:10;;;;;;;;;;;18.50;40.80;;;;;;490974;240;1646;-53
2020/12/10 08:52:32;;;;;;;;;;;18.40;39.40;;;;;;490732;241;1136;-53
2020/12/10 08:54:33;;;;;;;;;;;18.40;40.70;;;;;;491001;240;1148;-53
2020/12/10 08:56:37;;;;;;;;;;;18.40;40.70;;;;;;490848;240;1226;-54
2020/12/10 08:58:40;;;;;;;;;;;18.40;40.70;;;;;;490843;240;2396;-53
2020/12/10 09:00:38;;;;;;;;;;;18.40;40.70;;;;;;490805;242;2409;-54
2020/12/10 09:02:39;;;;;;;;;;;18.50;39.50;;;;;;490768;240;1237;-53
2020/12/10 09:04:41;;;;;;;;;;;18.40;40.80;;;;;;490753;240;1100;-54
2020/12/10 09:06:43;;;;;;;;;;;18.40;40.80;;;;;;490731;240;1215;-53
2020/12/10 09:08:44;;;;;;;;;;;18.40;39.40;;;;;;490843;240;1054;-53
2020/12/10 09:10:45;;;;;;;;;;;18.40;39.40;;;;;;490795;240;1034;-54
2020/12/10 09:12:46;;;;;;;;;;;18.40;39.40;;;;;;490771;240;1179;-54
2020/12/10 09:14:47;;;;;;;;;;;18.40;40.80;;;;;;490719;240;1084;-53
2020/12/10 09:16:49;;;;;;;;;;;18.40;40.80;;;;;;491000;240;1340;-53
2020/12/10 09:18:50;;;;;;;;;;;18.40;40.80;;;;;;490938;240;2220;-53
2020/12/10 09:20:52;;;;;;;;;;;18.40;40.80;;;;;;490940;240;1312;-53
2020/12/10 09:22:53;;;;;;;;;;;18.40;40.80;;;;;;490746;240;1208;-54
2020/12/10 09:24:56;;;;;;;;;;;18.40;40.80;;;;;;490712;240;1113;-53
2020/12/10 09:26:56;;;;;;;;;;;18.40;40.80;;;;;;490603;242;2441;-53
2020/12/10 09:28:58;;;;;;;;;;;18.40;40.80;;;;;;490896;240;1110;-53
2020/12/10 09:30:59;;;;;;;;;;;18.40;40.70;;;;;;490852;240;1122;-53
2020/12/10 09:33:00;;;;;;;;;;;18.40;40.70;;;;;;490673;240;1286;-54
2020/12/10 09:35:02;;;;;;;;;;;18.40;39.30;;;;;;490846;240;1230;-54
2020/12/10 09:37:03;;;;;;;;;;;18.40;40.60;;;;;;490631;240;1199;-54
2020/12/10 09:39:04;;;;;;;;;;;18.50;40.60;;;;;;490672;240;2208;-53
2020/12/10 09:41:06;;;;;;;;;;;18.50;40.50;;;;;;490871;240;1221;-54
2020/12/10 09:43:07;;;;;;;;;;;18.50;40.50;;;;;;490837;240;1424;-54
2020/12/10 09:45:08;;;;;;;;;;;18.50;40.50;;;;;;490872;240;1271;-53
2020/12/10 09:47:11;;;;;;;;;;;18.50;40.40;;;;;;490730;240;1195;-53
2020/12/10 09:49:11;;;;;;;;;;;18.60;39.10;;;;;;490749;241;2100;-54
2020/12/10 09:51:12;;;;;;;;;;;18.60;39.10;;;;;;490706;240;1154;-53
2020/12/10 09:53:17;;;;;;;;;;;18.60;40.30;;;;;;490635;240;1051;-54
2020/12/10 09:55:26;;;;;;;;;;;18.70;40.30;;;;;;490689;242;2257;-54
2020/12/10 09:59:39;;;;;;;;;;;18.70;40.30;;;;;;490613;241;2176;-54
2020/12/10 10:01:39;;;;;;;;;;;18.70;38.90;;;;;;490907;241;2202;-54
2020/12/10 10:03:40;;;;;;;;;;;18.70;40.20;;;;;;490912;240;1205;-54
2020/12/10 10:05:42;;;;;;;;;;;18.70;40.20;;;;;;490809;238;1355;-54
2020/12/10 10:07:43;;;;;;;;;;;18.80;38.90;;;;;;490717;240;1216;-53
2020/12/10 10:09:45;;;;;;;;;;;18.80;40.10;;;;;;490710;240;1174;-54
2020/12/10 10:11:46;;;;;;;;;;;18.80;40.10;;;;;;490640;240;2412;-53
2020/12/10 10:13:47;;;;;;;;;;;18.80;40.10;;;;;;490619;240;1051;-53
2020/12/10 10:15:49;;;;;;;;;;;18.80;40.00;;;;;;490603;240;1054;-53
2020/12/10 10:17:50;;;;;;;;;;;18.80;40.00;;;;;;490955;240;1177;-54
2020/12/10 10:19:51;;;;;;;;;;;18.90;40.00;;;;;;490658;240;2180;-54
2020/12/10 10:21:52;;;;;;;;;;;18.90;40.00;;;;;;490722;240;1297;-54
2020/12/10 10:23:54;;;;;;;;;;;18.90;38.70;;;;;;490721;240;1073;-54
2020/12/10 10:25:55;;;;;;;;;;;18.90;39.90;;;;;;490774;240;1057;-54
2020/12/10 10:27:57;;;;;;;;;;;18.90;39.90;;;;;;490813;240;1274;-54
2020/12/10 10:29:58;;;;;;;;;;;18.90;39.90;;;;;;490836;240;2330;-54
2020/12/10 10:31:59;;;;;;;;;;;19.00;38.60;;;;;;490462;240;1318;-53
2020/12/10 10:34:00;;;;;;;;;;;18.90;39.80;;;;;;490613;240;1446;-53
2020/12/10 10:36:02;;;;;;;;;;;19.00;39.80;;;;;;490734;240;1128;-54
2020/12/10 10:38:03;;;;;;;;;;;19.00;38.50;;;;;;490803;240;1108;-54
2020/12/10 10:40:04;;;;;;;;;;;19.00;39.80;;;;;;490706;240;2187;-53
2020/12/10 10:42:06;;;;;;;;;;;19.00;38.40;;;;;;490628;240;1092;-54
2020/12/10 10:44:07;;;;;;;;;;;19.00;39.80;;;;;;490686;240;1072;-53
2020/12/10 10:46:08;;;;;;;;;;;19.10;39.70;;;;;;490730;240;1023;-53
2020/12/10 10:48:09;;;;;;;;;;;19.10;39.70;;;;;;490800;240;1178;-54
2020/12/10 10:50:11;;;;;;;;;;;19.10;38.40;;;;;;490622;240;1084;-54
2020/12/10 10:52:12;;;;;;;;;;;19.10;39.70;;;;;;490652;240;1157;-54
2020/12/10 10:54:13;;;;;;;;;;;19.10;38.30;;;;;;490632;240;1049;-53
2020/12/10 10:56:15;;;;;;;;;;;19.10;39.60;;;;;;490743;240;1101;-54
2020/12/10 10:58:16;;;;;;;;;;;19.10;39.60;;;;;;490641;240;1071;-53
2020/12/10 11:00:17;;;;;;;;;;;19.10;39.60;;;;;;490727;240;2204;-55
2020/12/10 11:02:18;;;;;;;;;;;19.10;39.60;;;;;;490592;240;1209;-53
2020/12/10 11:04:20;;;;;;;;;;;19.20;38.30;;;;;;490516;240;1306;-54
2020/12/10 11:06:21;;;;;;;;;;;19.20;39.60;;;;;;490583;240;1064;-53
2020/12/10 11:08:22;;;;;;;;;;;19.20;39.50;;;;;;490593;240;1198;-53
2020/12/10 11:10:24;;;;;;;;;;;19.20;39.50;;;;;;490658;240;1123;-54
2020/12/10 11:12:25;;;;;;;;;;;19.20;39.50;;;;;;490557;240;1180;-54
2020/12/10 11:14:26;;;;;;;;;;;19.20;39.50;;;;;;490632;240;1147;-54
2020/12/10 11:16:27;;;;;;;;;;;19.20;38.10;;;;;;490571;240;1091;-54
2020/12/10 11:18:29;;;;;;;;;;;19.30;38.20;;;;;;490518;240;1238;-54
2020/12/10 11:20:30;;;;;;;;;;;19.30;39.50;;;;;;490658;240;2176;-54
2020/12/10 11:22:33;;;;;;;;;;;19.30;39.50;;;;;;490805;240;1157;-54
2020/12/10 11:24:33;;;;;;;;;;;19.30;39.50;;;;;;490856;240;1367;-53
2020/12/10 11:26:34;;;;;;;;;;;19.30;39.40;;;;;;490736;240;1829;-54
2020/12/10 11:28:35;;;;;;;;;;;19.30;39.40;;;;;;490707;240;1048;-54
2020/12/10 11:30:37;;;;;;;;;;;19.30;39.40;;;;;;490795;240;1052;-54
2020/12/10 11:32:38;;;;;;;;;;;19.30;39.40;;;;;;490580;240;1212;-53
2020/12/10 11:34:39;;;;;;;;;;;19.40;39.40;;;;;;490637;240;1246;-53
2020/12/10 11:36:40;;;;;;;;;;;19.40;39.40;;;;;;490745;240;1359;-54
2020/12/10 11:38:42;;;;;;;;;;;19.40;39.40;;;;;;490671;240;1070;-54
2020/12/10 11:40:43;;;;;;;;;;;19.40;39.30;;;;;;490697;240;2175;-54
2020/12/10 11:42:46;;;;;;;;;;;19.40;39.30;;;;;;490757;240;1388;-54
2020/12/10 11:44:47;;;;;;;;;;;19.40;39.30;;;;;;490678;242;2181;-54
2020/12/10 11:46:47;;;;;;;;;;;19.40;39.30;;;;;;490829;241;2170;-54
2020/12/10 11:48:48;;;;;;;;;;;19.40;39.30;;;;;;490842;240;1198;-54
2020/12/10 11:50:50;;;;;;;;;;;19.40;39.30;;;;;;490823;240;1125;-54
2020/12/10 11:52:51;;;;;;;;;;;19.40;39.20;;;;;;490698;240;1154;-54
2020/12/10 11:54:52;;;;;;;;;;;19.40;39.30;;;;;;490719;240;1045;-54
2020/12/10 11:56:55;;;;;;;;;;;19.40;39.30;;;;;;490685;240;1060;-54
2020/12/10 11:58:56;;;;;;;;;;;19.50;39.30;;;;;;490695;240;2085;-54
2020/12/10 12:00:57;;;;;;;;;;;19.40;39.20;;;;;;490799;240;2196;-54